logo
Search for airport 
image banner adimage banner adimage banner ad
image banner ad

FMNB - Bealanana/Ankaizina

Located in , Madagascar

ICAO - , IATA - WBE

Data provided by Airmate  

General information

Coordinates: S14°32'34" E48°41'30"
Elevation is 3730 feet MSL.
 
View others Airports in Mahajanga

Operational data

Special qualification required
Current time UTC:
Current local time:
Weather at : - ( 0 km )
METAR: KATL 050252Z 33011KT 10SM FEW200 11/01 A3005 RMK AO2 SLP176 T01110006 51006
TAF: KATL 050146Z 0502/0606 31008KT P6SM SKC FM050800 31005KT P6SM SKC FM051600 30010KT P6SM FEW250
View NOTAMs / SUP AIP / TFR affecting this airport [VIEW]
Communications frequencies: [VIEW]

Runways:

Airport contact information

Address: Madagascar

Satellite view of FMNB